Main page
METAR-TAF:

METAR-TAF

Airports :

Bou Saâda, Algeria

Bou Saada Airport

latitude: 35-20N, longitude: 004-12E, elevation: 461 m

Current weather observation

The report was made 8 hours and 7 minutes ago, at 18:00 UTC
Wind 6 kt from the East/Southeast
Temperature 33°C
Humidity 20%
Pressure 1013 hPa
Visibility: 8000 m
Few clouds at a height of 3000 ft

METAR: DAAD 281800Z 12006KT 8000 FEW030 33/07 Q1013

Time: 03:07 (02:07 UTC)

Forecast

The report was made 9 hours and 7 minutes ago, at 17:00 UTC
Forecast valid from 28 at 18 UTC to 29 at 03 UTC
Wind 10 kt from the East/Southeast
Visibility: 8000 m
Few clouds at a height of 3000 ft

TAF: DAAD 281700Z 2818/2903 12010KT 8000 FEW030

Weather observations and forecasts of more than 4000 airports (METAR and TAF reports).

The available stations are represented by yellow and red dots on the map.

Hover mouse over dot to see the name of the station.

Then click to see weather observations and forecasts.

To change the map : click on the green buttons with a black cross to zoom in, on the green button with a dash to zoom out, or on the green arrows for adjacent maps.


METAR-TAF: